sensor_id;sensor_type;location;lat;lon;timestamp;P1;durP1;ratioP1;P2;durP2;ratioP2
6723;SDS011;3399;52.530;13.304;2023-10-13T00:01:21;6.87;;;3.70;;
6723;SDS011;3399;52.530;13.304;2023-10-13T00:03:48;9.47;;;4.17;;
6723;SDS011;3399;52.530;13.304;2023-10-13T00:06:13;3.97;;;3.47;;
6723;SDS011;3399;52.530;13.304;2023-10-13T00:08:40;7.53;;;3.60;;
6723;SDS011;3399;52.530;13.304;2023-10-13T00:11:06;4.90;;;4.03;;
6723;SDS011;3399;52.530;13.304;2023-10-13T00:13:36;7.93;;;3.23;;
6723;SDS011;3399;52.530;13.304;2023-10-13T00:16:28;8.47;;;3.90;;
6723;SDS011;3399;52.530;13.304;2023-10-13T00:18:53;8.53;;;3.30;;
6723;SDS011;3399;52.530;13.304;2023-10-13T00:21:22;6.00;;;3.77;;
6723;SDS011;3399;52.530;13.304;2023-10-13T00:23:57;5.27;;;3.43;;
6723;SDS011;3399;52.530;13.304;2023-10-13T00:26:26;5.77;;;3.50;;
6723;SDS011;3399;52.530;13.304;2023-10-13T00:29:00;5.80;;;3.50;;
6723;SDS011;3399;52.530;13.304;2023-10-13T00:31:33;4.87;;;3.70;;
6723;SDS011;3399;52.530;13.304;2023-10-13T00:34:01;6.33;;;3.73;;
6723;SDS011;3399;52.530;13.304;2023-10-13T00:36:35;6.43;;;4.67;;
6723;SDS011;3399;52.530;13.304;2023-10-13T00:39:02;9.90;;;4.90;;
6723;SDS011;3399;52.530;13.304;2023-10-13T00:41:32;9.80;;;4.57;;
6723;SDS011;3399;52.530;13.304;2023-10-13T00:44:16;6.93;;;5.50;;
6723;SDS011;3399;52.530;13.304;2023-10-13T00:46:42;8.83;;;4.63;;
6723;SDS011;3399;52.530;13.304;2023-10-13T00:49:10;8.10;;;5.23;;
6723;SDS011;3399;52.530;13.304;2023-10-13T00:51:40;6.87;;;5.33;;
6723;SDS011;3399;52.530;13.304;2023-10-13T00:54:12;10.03;;;5.90;;
6723;SDS011;3399;52.530;13.304;2023-10-13T00:56:38;7.73;;;5.87;;
6723;SDS011;3399;52.530;13.304;2023-10-13T00:59:11;7.90;;;5.40;;
6723;SDS011;3399;52.530;13.304;2023-10-13T01:01:39;8.57;;;5.60;;
6723;SDS011;3399;52.530;13.304;2023-10-13T01:04:07;8.67;;;5.77;;
6723;SDS011;3399;52.530;13.304;2023-10-13T01:06:36;5.87;;;5.23;;
6723;SDS011;3399;52.530;13.304;2023-10-13T01:09:09;8.53;;;5.10;;
6723;SDS011;3399;52.530;13.304;2023-10-13T01:11:43;4.60;;;4.13;;
6723;SDS011;3399;52.530;13.304;2023-10-13T01:14:11;5.93;;;4.47;;
6723;SDS011;3399;52.530;13.304;2023-10-13T01:16:38;7.00;;;4.37;;
6723;SDS011;3399;52.530;13.304;2023-10-13T01:19:10;5.90;;;4.00;;
6723;SDS011;3399;52.530;13.304;2023-10-13T01:21:37;5.97;;;4.10;;
6723;SDS011;3399;52.530;13.304;2023-10-13T01:24:05;5.73;;;3.60;;
6723;SDS011;3399;52.530;13.304;2023-10-13T01:26:32;5.50;;;3.63;;
6723;SDS011;3399;52.530;13.304;2023-10-13T01:29:03;7.87;;;4.60;;
6723;SDS011;3399;52.530;13.304;2023-10-13T01:31:37;6.23;;;4.30;;
6723;SDS011;3399;52.530;13.304;2023-10-13T01:34:03;5.83;;;3.73;;
6723;SDS011;3399;52.530;13.304;2023-10-13T01:36:28;6.33;;;4.23;;
6723;SDS011;3399;52.530;13.304;2023-10-13T01:39:00;8.13;;;5.10;;
6723;SDS011;3399;52.530;13.304;2023-10-13T01:41:26;7.73;;;4.73;;
6723;SDS011;3399;52.530;13.304;2023-10-13T01:43:52;5.77;;;4.87;;
6723;SDS011;3399;52.530;13.304;2023-10-13T01:46:17;5.30;;;4.80;;
6723;SDS011;3399;52.530;13.304;2023-10-13T01:48:46;5.90;;;3.97;;
6723;SDS011;3399;52.530;13.304;2023-10-13T01:51:12;6.00;;;5.17;;
6723;SDS011;3399;52.530;13.304;2023-10-13T01:53:38;6.60;;;5.97;;
6723;SDS011;3399;52.530;13.304;2023-10-13T01:56:05;6.43;;;5.73;;
6723;SDS011;3399;52.530;13.304;2023-10-13T01:58:35;8.57;;;5.60;;
6723;SDS011;3399;52.530;13.304;2023-10-13T02:01:08;5.80;;;5.00;;
6723;SDS011;3399;52.530;13.304;2023-10-13T02:03:35;5.13;;;4.63;;
6723;SDS011;3399;52.530;13.304;2023-10-13T02:06:07;6.07;;;4.70;;
6723;SDS011;3399;52.530;13.304;2023-10-13T02:08:35;8.77;;;6.53;;
6723;SDS011;3399;52.530;13.304;2023-10-13T02:11:05;7.53;;;5.57;;
6723;SDS011;3399;52.530;13.304;2023-10-13T02:13:32;6.77;;;6.10;;
6723;SDS011;3399;52.530;13.304;2023-10-13T02:15:57;6.93;;;6.03;;
6723;SDS011;3399;52.530;13.304;2023-10-13T02:18:27;6.87;;;6.20;;
6723;SDS011;3399;52.530;13.304;2023-10-13T02:20:53;7.60;;;6.83;;
6723;SDS011;3399;52.530;13.304;2023-10-13T02:23:20;8.13;;;6.93;;
6723;SDS011;3399;52.530;13.304;2023-10-13T02:25:47;9.27;;;6.30;;
6723;SDS011;3399;52.530;13.304;2023-10-13T02:28:13;8.37;;;7.40;;
6723;SDS011;3399;52.530;13.304;2023-10-13T02:30:40;8.50;;;7.67;;
6723;SDS011;3399;52.530;13.304;2023-10-13T02:33:13;11.23;;;7.50;;
6723;SDS011;3399;52.530;13.304;2023-10-13T02:35:40;8.87;;;7.97;;
6723;SDS011;3399;52.530;13.304;2023-10-13T02:38:16;7.73;;;6.93;;
6723;SDS011;3399;52.530;13.304;2023-10-13T02:40:53;8.43;;;6.80;;
6723;SDS011;3399;52.530;13.304;2023-10-13T02:43:20;12.47;;;7.80;;
6723;SDS011;3399;52.530;13.304;2023-10-13T02:45:55;9.27;;;8.20;;
6723;SDS011;3399;52.530;13.304;2023-10-13T02:48:24;10.53;;;7.67;;
6723;SDS011;3399;52.530;13.304;2023-10-13T02:50:55;10.10;;;8.17;;
6723;SDS011;3399;52.530;13.304;2023-10-13T02:53:30;15.07;;;8.53;;
6723;SDS011;3399;52.530;13.304;2023-10-13T02:55:56;12.67;;;8.37;;
6723;SDS011;3399;52.530;13.304;2023-10-13T02:58:23;14.00;;;8.93;;
6723;SDS011;3399;52.530;13.304;2023-10-13T03:01:02;11.60;;;8.27;;
6723;SDS011;3399;52.530;13.304;2023-10-13T03:03:41;11.00;;;7.87;;
6723;SDS011;3399;52.530;13.304;2023-10-13T03:06:08;9.93;;;8.80;;
6723;SDS011;3399;52.530;13.304;2023-10-13T03:08:36;12.10;;;8.47;;
6723;SDS011;3399;52.530;13.304;2023-10-13T03:11:03;16.27;;;9.23;;
6723;SDS011;3399;52.530;13.304;2023-10-13T03:13:30;11.53;;;9.80;;
6723;SDS011;3399;52.530;13.304;2023-10-13T03:15:58;15.63;;;9.30;;
6723;SDS011;3399;52.530;13.304;2023-10-13T03:18:24;15.27;;;10.03;;
6723;SDS011;3399;52.530;13.304;2023-10-13T03:20:50;15.80;;;9.97;;
6723;SDS011;3399;52.530;13.304;2023-10-13T03:23:21;12.40;;;9.60;;
6723;SDS011;3399;52.530;13.304;2023-10-13T03:25:49;12.00;;;9.87;;
6723;SDS011;3399;52.530;13.304;2023-10-13T03:28:15;12.77;;;10.50;;
6723;SDS011;3399;52.530;13.304;2023-10-13T03:30:43;14.43;;;10.30;;
6723;SDS011;3399;52.530;13.304;2023-10-13T03:33:08;13.63;;;9.93;;
6723;SDS011;3399;52.530;13.304;2023-10-13T03:35:36;12.60;;;10.33;;
6723;SDS011;3399;52.530;13.304;2023-10-13T03:38:04;17.63;;;10.07;;
6723;SDS011;3399;52.530;13.304;2023-10-13T03:40:43;14.80;;;10.43;;
6723;SDS011;3399;52.530;13.304;2023-10-13T03:43:21;13.73;;;10.70;;
6723;SDS011;3399;52.530;13.304;2023-10-13T03:45:47;13.83;;;10.07;;
6723;SDS011;3399;52.530;13.304;2023-10-13T03:48:17;10.50;;;9.50;;
6723;SDS011;3399;52.530;13.304;2023-10-13T03:51:07;12.23;;;9.20;;
6723;SDS011;3399;52.530;13.304;2023-10-13T03:53:32;12.63;;;10.20;;
6723;SDS011;3399;52.530;13.304;2023-10-13T03:55:59;14.30;;;9.70;;
6723;SDS011;3399;52.530;13.304;2023-10-13T03:58:36;15.00;;;10.23;;
6723;SDS011;3399;52.530;13.304;2023-10-13T04:01:10;16.13;;;11.30;;
6723;SDS011;3399;52.530;13.304;2023-10-13T04:03:39;11.47;;;9.60;;
6723;SDS011;3399;52.530;13.304;2023-10-13T04:06:21;15.57;;;11.37;;
6723;SDS011;3399;52.530;13.304;2023-10-13T04:09:13;12.87;;;10.40;;
6723;SDS011;3399;52.530;13.304;2023-10-13T04:11:57;15.17;;;11.10;;
6723;SDS011;3399;52.530;13.304;2023-10-13T04:14:28;13.37;;;11.17;;
6723;SDS011;3399;52.530;13.304;2023-10-13T04:17:16;13.90;;;10.37;;
6723;SDS011;3399;52.530;13.304;2023-10-13T04:19:49;15.93;;;12.33;;
6723;SDS011;3399;52.530;13.304;2023-10-13T04:22:34;14.30;;;12.27;;
6723;SDS011;3399;52.530;13.304;2023-10-13T04:27:57;15.90;;;11.80;;
6723;SDS011;3399;52.530;13.304;2023-10-13T04:33:22;17.03;;;13.40;;
6723;SDS011;3399;52.530;13.304;2023-10-13T04:36:00;18.70;;;13.47;;
6723;SDS011;3399;52.530;13.304;2023-10-13T04:38:48;17.90;;;13.73;;
6723;SDS011;3399;52.530;13.304;2023-10-13T04:41:33;19.73;;;14.23;;
6723;SDS011;3399;52.530;13.304;2023-10-13T04:44:07;20.70;;;14.03;;
6723;SDS011;3399;52.530;13.304;2023-10-13T04:46:53;20.07;;;13.60;;
6723;SDS011;3399;52.530;13.304;2023-10-13T04:49:22;17.03;;;14.10;;
6723;SDS011;3399;52.530;13.304;2023-10-13T04:51:57;16.67;;;12.90;;
6723;SDS011;3399;52.530;13.304;2023-10-13T04:54:27;20.23;;;14.23;;
6723;SDS011;3399;52.530;13.304;2023-10-13T04:57:13;18.43;;;12.53;;
6723;SDS011;3399;52.530;13.304;2023-10-13T04:59:50;17.03;;;14.13;;
6723;SDS011;3399;52.530;13.304;2023-10-13T05:02:37;17.07;;;14.30;;
6723;SDS011;3399;52.530;13.304;2023-10-13T05:05:04;17.93;;;14.23;;
6723;SDS011;3399;52.530;13.304;2023-10-13T05:07:40;18.63;;;12.83;;
6723;SDS011;3399;52.530;13.304;2023-10-13T05:10:24;17.83;;;13.70;;
6723;SDS011;3399;52.530;13.304;2023-10-13T05:13:08;18.27;;;13.17;;
6723;SDS011;3399;52.530;13.304;2023-10-13T05:15:53;19.63;;;14.03;;
6723;SDS011;3399;52.530;13.304;2023-10-13T05:18:37;20.17;;;13.50;;
6723;SDS011;3399;52.530;13.304;2023-10-13T05:21:21;16.90;;;14.17;;
6723;SDS011;3399;52.530;13.304;2023-10-13T05:24:05;16.17;;;12.50;;
6723;SDS011;3399;52.530;13.304;2023-10-13T05:26:50;15.70;;;12.47;;
6723;SDS011;3399;52.530;13.304;2023-10-13T05:29:39;15.33;;;13.37;;
6723;SDS011;3399;52.530;13.304;2023-10-13T05:32:27;14.23;;;12.73;;
6723;SDS011;3399;52.530;13.304;2023-10-13T05:35:12;19.17;;;13.67;;
6723;SDS011;3399;52.530;13.304;2023-10-13T05:37:56;17.13;;;12.63;;
6723;SDS011;3399;52.530;13.304;2023-10-13T05:40:51;15.20;;;13.27;;
6723;SDS011;3399;52.530;13.304;2023-10-13T05:43:40;16.03;;;13.23;;
6723;SDS011;3399;52.530;13.304;2023-10-13T05:46:24;13.63;;;11.93;;
6723;SDS011;3399;52.530;13.304;2023-10-13T05:48:50;20.83;;;13.93;;
6723;SDS011;3399;52.530;13.304;2023-10-13T05:51:28;17.43;;;13.57;;
6723;SDS011;3399;52.530;13.304;2023-10-13T05:53:58;13.37;;;11.97;;
6723;SDS011;3399;52.530;13.304;2023-10-13T05:56:41;16.27;;;13.50;;
6723;SDS011;3399;52.530;13.304;2023-10-13T05:59:30;15.70;;;13.10;;
6723;SDS011;3399;52.530;13.304;2023-10-13T06:02:16;17.90;;;12.27;;
6723;SDS011;3399;52.530;13.304;2023-10-13T06:05:05;15.83;;;10.40;;
6723;SDS011;3399;52.530;13.304;2023-10-13T06:07:51;16.83;;;12.23;;
6723;SDS011;3399;52.530;13.304;2023-10-13T06:10:36;17.43;;;12.03;;
6723;SDS011;3399;52.530;13.304;2023-10-13T06:13:20;14.10;;;11.53;;
6723;SDS011;3399;52.530;13.304;2023-10-13T06:16:08;13.63;;;12.23;;
6723;SDS011;3399;52.530;13.304;2023-10-13T06:18:53;16.57;;;11.73;;
6723;SDS011;3399;52.530;13.304;2023-10-13T06:21:38;13.57;;;12.17;;
6723;SDS011;3399;52.530;13.304;2023-10-13T06:24:22;13.23;;;11.17;;
6723;SDS011;3399;52.530;13.304;2023-10-13T06:27:06;13.53;;;11.53;;
6723;SDS011;3399;52.530;13.304;2023-10-13T06:29:50;14.40;;;12.27;;
6723;SDS011;3399;52.530;13.304;2023-10-13T06:32:18;17.27;;;13.37;;
6723;SDS011;3399;52.530;13.304;2023-10-13T06:34:44;12.70;;;10.83;;
6723;SDS011;3399;52.530;13.304;2023-10-13T06:37:13;16.00;;;12.20;;
6723;SDS011;3399;52.530;13.304;2023-10-13T06:39:51;13.83;;;11.23;;
6723;SDS011;3399;52.530;13.304;2023-10-13T06:42:21;17.50;;;11.27;;
6723;SDS011;3399;52.530;13.304;2023-10-13T06:44:52;12.27;;;10.47;;
6723;SDS011;3399;52.530;13.304;2023-10-13T06:47:21;13.60;;;10.73;;
6723;SDS011;3399;52.530;13.304;2023-10-13T06:49:47;14.17;;;11.27;;
6723;SDS011;3399;52.530;13.304;2023-10-13T06:52:16;11.90;;;10.60;;
6723;SDS011;3399;52.530;13.304;2023-10-13T06:54:42;14.93;;;11.63;;
6723;SDS011;3399;52.530;13.304;2023-10-13T06:57:09;12.63;;;10.60;;
6723;SDS011;3399;52.530;13.304;2023-10-13T06:59:45;14.10;;;10.57;;
6723;SDS011;3399;52.530;13.304;2023-10-13T07:02:11;15.30;;;11.43;;
6723;SDS011;3399;52.530;13.304;2023-10-13T07:04:46;14.83;;;11.43;;
6723;SDS011;3399;52.530;13.304;2023-10-13T07:07:12;12.77;;;10.77;;
6723;SDS011;3399;52.530;13.304;2023-10-13T07:09:41;14.67;;;10.07;;
6723;SDS011;3399;52.530;13.304;2023-10-13T07:12:14;15.23;;;10.57;;
6723;SDS011;3399;52.530;13.304;2023-10-13T07:14:53;22.50;;;11.00;;
6723;SDS011;3399;52.530;13.304;2023-10-13T07:17:28;11.33;;;9.70;;
6723;SDS011;3399;52.530;13.304;2023-10-13T07:19:58;16.30;;;10.73;;
6723;SDS011;3399;52.530;13.304;2023-10-13T07:22:42;13.63;;;8.70;;
6723;SDS011;3399;52.530;13.304;2023-10-13T07:25:22;13.57;;;11.23;;
6723;SDS011;3399;52.530;13.304;2023-10-13T07:27:50;12.83;;;9.67;;
6723;SDS011;3399;52.530;13.304;2023-10-13T07:30:16;11.27;;;9.43;;
6723;SDS011;3399;52.530;13.304;2023-10-13T07:32:45;11.03;;;8.80;;
6723;SDS011;3399;52.530;13.304;2023-10-13T07:35:14;12.70;;;9.83;;
6723;SDS011;3399;52.530;13.304;2023-10-13T07:37:42;12.60;;;9.47;;
6723;SDS011;3399;52.530;13.304;2023-10-13T07:40:08;13.60;;;9.57;;
6723;SDS011;3399;52.530;13.304;2023-10-13T07:42:55;13.53;;;8.33;;
6723;SDS011;3399;52.530;13.304;2023-10-13T07:45:33;8.90;;;8.00;;
6723;SDS011;3399;52.530;13.304;2023-10-13T07:48:05;16.53;;;9.63;;
6723;SDS011;3399;52.530;13.304;2023-10-13T07:50:37;11.47;;;9.37;;
6723;SDS011;3399;52.530;13.304;2023-10-13T07:53:04;9.97;;;8.20;;
6723;SDS011;3399;52.530;13.304;2023-10-13T07:55:44;11.23;;;7.93;;
6723;SDS011;3399;52.530;13.304;2023-10-13T07:58:10;10.07;;;8.30;;
6723;SDS011;3399;52.530;13.304;2023-10-13T08:00:38;9.27;;;8.37;;
6723;SDS011;3399;52.530;13.304;2023-10-13T08:03:07;11.97;;;8.47;;
6723;SDS011;3399;52.530;13.304;2023-10-13T08:05:41;9.10;;;6.83;;
6723;SDS011;3399;52.530;13.304;2023-10-13T08:08:22;10.53;;;7.77;;
6723;SDS011;3399;52.530;13.304;2023-10-13T08:10:51;7.73;;;6.93;;
6723;SDS011;3399;52.530;13.304;2023-10-13T08:13:20;10.07;;;6.80;;
6723;SDS011;3399;52.530;13.304;2023-10-13T08:15:46;8.10;;;6.63;;
6723;SDS011;3399;52.530;13.304;2023-10-13T08:18:15;7.30;;;6.27;;
6723;SDS011;3399;52.530;13.304;2023-10-13T08:20:55;10.97;;;6.90;;
6723;SDS011;3399;52.530;13.304;2023-10-13T08:23:31;10.07;;;6.73;;
6723;SDS011;3399;52.530;13.304;2023-10-13T08:26:20;7.50;;;6.73;;
6723;SDS011;3399;52.530;13.304;2023-10-13T08:29:01;8.00;;;6.77;;
6723;SDS011;3399;52.530;13.304;2023-10-13T08:31:49;9.80;;;6.67;;
6723;SDS011;3399;52.530;13.304;2023-10-13T08:34:34;7.63;;;6.53;;
6723;SDS011;3399;52.530;13.304;2023-10-13T08:37:25;10.47;;;6.60;;
6723;SDS011;3399;52.530;13.304;2023-10-13T08:42:30;7.30;;;6.57;;
6723;SDS011;3399;52.530;13.304;2023-10-13T08:45:10;7.67;;;6.13;;
6723;SDS011;3399;52.530;13.304;2023-10-13T08:47:57;6.70;;;5.20;;
6723;SDS011;3399;52.530;13.304;2023-10-13T08:50:37;7.40;;;6.50;;
6723;SDS011;3399;52.530;13.304;2023-10-13T08:53:26;7.27;;;5.80;;
6723;SDS011;3399;52.530;13.304;2023-10-13T08:55:56;7.27;;;5.57;;
6723;SDS011;3399;52.530;13.304;2023-10-13T08:58:42;6.77;;;6.17;;
6723;SDS011;3399;52.530;13.304;2023-10-13T09:04:16;8.50;;;6.23;;
6723;SDS011;3399;52.530;13.304;2023-10-13T09:06:43;5.67;;;5.17;;
6723;SDS011;3399;52.530;13.304;2023-10-13T09:09:13;8.57;;;6.07;;
6723;SDS011;3399;52.530;13.304;2023-10-13T09:11:57;7.83;;;5.97;;
6723;SDS011;3399;52.530;13.304;2023-10-13T09:14:38;11.90;;;7.20;;
6723;SDS011;3399;52.530;13.304;2023-10-13T09:17:11;9.10;;;6.40;;
6723;SDS011;3399;52.530;13.304;2023-10-13T09:19:51;6.93;;;6.23;;
6723;SDS011;3399;52.530;13.304;2023-10-13T09:22:23;7.63;;;5.60;;
6723;SDS011;3399;52.530;13.304;2023-10-13T09:25:00;7.50;;;5.40;;
6723;SDS011;3399;52.530;13.304;2023-10-13T09:27:28;7.17;;;6.47;;
6723;SDS011;3399;52.530;13.304;2023-10-13T09:29:57;8.10;;;6.20;;
6723;SDS011;3399;52.530;13.304;2023-10-13T09:32:43;9.53;;;6.17;;
6723;SDS011;3399;52.530;13.304;2023-10-13T09:35:16;6.17;;;5.57;;
6723;SDS011;3399;52.530;13.304;2023-10-13T09:37:48;10.10;;;6.37;;
6723;SDS011;3399;52.530;13.304;2023-10-13T09:40:15;6.53;;;5.90;;
6723;SDS011;3399;52.530;13.304;2023-10-13T09:43:03;8.30;;;5.53;;
6723;SDS011;3399;52.530;13.304;2023-10-13T09:45:33;5.97;;;5.37;;
6723;SDS011;3399;52.530;13.304;2023-10-13T09:48:04;7.27;;;6.27;;
6723;SDS011;3399;52.530;13.304;2023-10-13T09:50:42;7.70;;;6.90;;
6723;SDS011;3399;52.530;13.304;2023-10-13T09:53:13;8.57;;;6.50;;
6723;SDS011;3399;52.530;13.304;2023-10-13T09:56:00;11.83;;;7.07;;
6723;SDS011;3399;52.530;13.304;2023-10-13T09:58:53;7.10;;;6.27;;
6723;SDS011;3399;52.530;13.304;2023-10-13T10:01:39;9.03;;;6.43;;
6723;SDS011;3399;52.530;13.304;2023-10-13T10:04:15;9.67;;;7.03;;
6723;SDS011;3399;52.530;13.304;2023-10-13T10:06:52;8.13;;;7.33;;
6723;SDS011;3399;52.530;13.304;2023-10-13T10:09:28;7.93;;;6.50;;
6723;SDS011;3399;52.530;13.304;2023-10-13T10:17:55;9.67;;;7.60;;
6723;SDS011;3399;52.530;13.304;2023-10-13T10:20:34;7.70;;;6.90;;
6723;SDS011;3399;52.530;13.304;2023-10-13T10:23:05;7.40;;;6.70;;
6723;SDS011;3399;52.530;13.304;2023-10-13T10:25:36;7.93;;;6.63;;
6723;SDS011;3399;52.530;13.304;2023-10-13T10:28:03;6.73;;;5.87;;
6723;SDS011;3399;52.530;13.304;2023-10-13T10:30:33;11.07;;;6.30;;
6723;SDS011;3399;52.530;13.304;2023-10-13T10:33:00;7.37;;;6.63;;
6723;SDS011;3399;52.530;13.304;2023-10-13T10:35:37;7.70;;;6.90;;
6723;SDS011;3399;52.530;13.304;2023-10-13T10:38:11;10.27;;;6.57;;
6723;SDS011;3399;52.530;13.304;2023-10-13T10:40:49;7.20;;;5.97;;
6723;SDS011;3399;52.530;13.304;2023-10-13T10:43:18;8.10;;;6.47;;
6723;SDS011;3399;52.530;13.304;2023-10-13T10:45:50;11.00;;;6.60;;
6723;SDS011;3399;52.530;13.304;2023-10-13T10:48:16;6.63;;;5.83;;
6723;SDS011;3399;52.530;13.304;2023-10-13T10:50:43;6.17;;;5.57;;
6723;SDS011;3399;52.530;13.304;2023-10-13T10:53:18;9.10;;;6.30;;
6723;SDS011;3399;52.530;13.304;2023-10-13T10:56:05;8.77;;;6.43;;
6723;SDS011;3399;52.530;13.304;2023-10-13T10:58:44;9.27;;;6.83;;
6723;SDS011;3399;52.530;13.304;2023-10-13T11:01:13;13.03;;;7.17;;
6723;SDS011;3399;52.530;13.304;2023-10-13T11:03:55;9.90;;;6.47;;
6723;SDS011;3399;52.530;13.304;2023-10-13T11:06:33;9.03;;;6.40;;
6723;SDS011;3399;52.530;13.304;2023-10-13T11:09:11;11.67;;;6.80;;
6723;SDS011;3399;52.530;13.304;2023-10-13T11:11:57;9.17;;;6.83;;
6723;SDS011;3399;52.530;13.304;2023-10-13T11:14:59;9.67;;;6.30;;
6723;SDS011;3399;52.530;13.304;2023-10-13T11:17:50;8.30;;;6.23;;
6723;SDS011;3399;52.530;13.304;2023-10-13T11:20:19;7.17;;;6.20;;
6723;SDS011;3399;52.530;13.304;2023-10-13T11:22:58;11.63;;;6.47;;
6723;SDS011;3399;52.530;13.304;2023-10-13T11:25:25;6.90;;;6.00;;
6723;SDS011;3399;52.530;13.304;2023-10-13T11:27:55;7.80;;;6.40;;
6723;SDS011;3399;52.530;13.304;2023-10-13T11:30:23;7.80;;;6.20;;
6723;SDS011;3399;52.530;13.304;2023-10-13T11:35:24;9.13;;;6.83;;
6723;SDS011;3399;52.530;13.304;2023-10-13T11:37:50;8.50;;;6.50;;
6723;SDS011;3399;52.530;13.304;2023-10-13T11:40:28;10.13;;;6.57;;
6723;SDS011;3399;52.530;13.304;2023-10-13T11:43:29;7.37;;;6.13;;
6723;SDS011;3399;52.530;13.304;2023-10-13T11:46:15;6.97;;;5.37;;
6723;SDS011;3399;52.530;13.304;2023-10-13T11:51:41;9.07;;;5.87;;
6723;SDS011;3399;52.530;13.304;2023-10-13T11:54:10;11.67;;;6.73;;
6723;SDS011;3399;52.530;13.304;2023-10-13T11:56:46;8.07;;;6.37;;
6723;SDS011;3399;52.530;13.304;2023-10-13T11:59:13;12.90;;;5.80;;
6723;SDS011;3399;52.530;13.304;2023-10-13T12:01:49;7.57;;;5.30;;
6723;SDS011;3399;52.530;13.304;2023-10-13T12:04:34;8.00;;;5.57;;
6723;SDS011;3399;52.530;13.304;2023-10-13T12:07:14;9.73;;;6.27;;
6723;SDS011;3399;52.530;13.304;2023-10-13T12:09:45;8.13;;;5.83;;
6723;SDS011;3399;52.530;13.304;2023-10-13T12:12:20;7.90;;;5.23;;
6723;SDS011;3399;52.530;13.304;2023-10-13T12:14:50;7.53;;;5.30;;
6723;SDS011;3399;52.530;13.304;2023-10-13T12:17:22;6.97;;;5.13;;
6723;SDS011;3399;52.530;13.304;2023-10-13T12:20:04;13.47;;;5.50;;
6723;SDS011;3399;52.530;13.304;2023-10-13T12:22:34;7.60;;;5.53;;
6723;SDS011;3399;52.530;13.304;2023-10-13T12:25:04;9.33;;;5.87;;
6723;SDS011;3399;52.530;13.304;2023-10-13T12:27:43;6.13;;;5.40;;
6723;SDS011;3399;52.530;13.304;2023-10-13T12:30:13;10.60;;;5.63;;
6723;SDS011;3399;52.530;13.304;2023-10-13T12:32:41;9.80;;;6.80;;
6723;SDS011;3399;52.530;13.304;2023-10-13T12:35:19;9.87;;;6.00;;
6723;SDS011;3399;52.530;13.304;2023-10-13T12:38:00;9.73;;;5.40;;
6723;SDS011;3399;52.530;13.304;2023-10-13T12:40:41;11.27;;;5.47;;
6723;SDS011;3399;52.530;13.304;2023-10-13T12:43:25;9.23;;;5.90;;
6723;SDS011;3399;52.530;13.304;2023-10-13T12:46:09;8.63;;;6.13;;
6723;SDS011;3399;52.530;13.304;2023-10-13T12:48:53;8.40;;;5.57;;
6723;SDS011;3399;52.530;13.304;2023-10-13T12:51:51;7.43;;;5.93;;
6723;SDS011;3399;52.530;13.304;2023-10-13T12:54:16;11.57;;;5.90;;
6723;SDS011;3399;52.530;13.304;2023-10-13T12:56:48;6.20;;;5.67;;
6723;SDS011;3399;52.530;13.304;2023-10-13T12:59:22;8.50;;;5.53;;
6723;SDS011;3399;52.530;13.304;2023-10-13T13:01:51;8.43;;;5.47;;
6723;SDS011;3399;52.530;13.304;2023-10-13T13:04:17;8.50;;;6.10;;
6723;SDS011;3399;52.530;13.304;2023-10-13T13:06:45;7.60;;;5.23;;
6723;SDS011;3399;52.530;13.304;2023-10-13T13:09:12;8.00;;;4.97;;
6723;SDS011;3399;52.530;13.304;2023-10-13T13:11:37;8.37;;;5.63;;
6723;SDS011;3399;52.530;13.304;2023-10-13T13:14:05;6.77;;;5.67;;
6723;SDS011;3399;52.530;13.304;2023-10-13T13:16:33;7.23;;;5.13;;
6723;SDS011;3399;52.530;13.304;2023-10-13T13:18:59;7.73;;;4.87;;
6723;SDS011;3399;52.530;13.304;2023-10-13T13:21:28;9.00;;;4.77;;
6723;SDS011;3399;52.530;13.304;2023-10-13T13:23:54;8.77;;;5.57;;
6723;SDS011;3399;52.530;13.304;2023-10-13T13:26:20;12.13;;;6.13;;
6723;SDS011;3399;52.530;13.304;2023-10-13T13:28:47;9.97;;;5.27;;
6723;SDS011;3399;52.530;13.304;2023-10-13T13:31:17;7.57;;;4.73;;
6723;SDS011;3399;52.530;13.304;2023-10-13T13:33:54;9.30;;;5.07;;
6723;SDS011;3399;52.530;13.304;2023-10-13T13:36:20;12.37;;;5.47;;
6723;SDS011;3399;52.530;13.304;2023-10-13T13:38:47;9.40;;;5.37;;
6723;SDS011;3399;52.530;13.304;2023-10-13T13:41:19;9.77;;;4.93;;
6723;SDS011;3399;52.530;13.304;2023-10-13T13:43:45;8.30;;;4.80;;
6723;SDS011;3399;52.530;13.304;2023-10-13T13:46:18;11.77;;;4.60;;
6723;SDS011;3399;52.530;13.304;2023-10-13T13:48:44;7.70;;;4.80;;
6723;SDS011;3399;52.530;13.304;2023-10-13T13:51:13;5.43;;;4.60;;
6723;SDS011;3399;52.530;13.304;2023-10-13T13:53:51;11.47;;;5.03;;
6723;SDS011;3399;52.530;13.304;2023-10-13T13:56:17;8.87;;;6.17;;
6723;SDS011;3399;52.530;13.304;2023-10-13T13:58:47;7.47;;;4.73;;
6723;SDS011;3399;52.530;13.304;2023-10-13T14:01:14;12.03;;;4.80;;
6723;SDS011;3399;52.530;13.304;2023-10-13T14:03:43;9.07;;;4.13;;
6723;SDS011;3399;52.530;13.304;2023-10-13T14:06:13;9.27;;;4.90;;
6723;SDS011;3399;52.530;13.304;2023-10-13T14:08:49;10.98;;;5.50;;
6723;SDS011;3399;52.530;13.304;2023-10-13T14:11:22;5.50;;;4.33;;
6723;SDS011;3399;52.530;13.304;2023-10-13T14:14:03;9.77;;;4.15;;
6723;SDS011;3399;52.530;13.304;2023-10-13T14:16:53;8.02;;;5.05;;
6723;SDS011;3399;52.530;13.304;2023-10-13T14:19:27;10.18;;;4.85;;
6723;SDS011;3399;52.530;13.304;2023-10-13T14:21:53;9.93;;;5.20;;
6723;SDS011;3399;52.530;13.304;2023-10-13T14:24:22;8.83;;;5.00;;
6723;SDS011;3399;52.530;13.304;2023-10-13T14:26:58;7.63;;;4.50;;
6723;SDS011;3399;52.530;13.304;2023-10-13T14:29:34;13.53;;;5.17;;
6723;SDS011;3399;52.530;13.304;2023-10-13T14:32:05;12.60;;;5.45;;
6723;SDS011;3399;52.530;13.304;2023-10-13T14:34:31;6.60;;;4.70;;
6723;SDS011;3399;52.530;13.304;2023-10-13T14:37:00;10.43;;;5.20;;
6723;SDS011;3399;52.530;13.304;2023-10-13T14:39:25;12.17;;;5.07;;
6723;SDS011;3399;52.530;13.304;2023-10-13T14:41:54;7.70;;;4.23;;
6723;SDS011;3399;52.530;13.304;2023-10-13T14:44:20;11.30;;;5.07;;
6723;SDS011;3399;52.530;13.304;2023-10-13T14:46:51;14.37;;;5.00;;
6723;SDS011;3399;52.530;13.304;2023-10-13T14:49:20;9.90;;;4.97;;
6723;SDS011;3399;52.530;13.304;2023-10-13T14:51:45;5.50;;;4.77;;
6723;SDS011;3399;52.530;13.304;2023-10-13T14:54:11;8.33;;;5.63;;
6723;SDS011;3399;52.530;13.304;2023-10-13T14:56:39;13.53;;;5.57;;
6723;SDS011;3399;52.530;13.304;2023-10-13T14:59:07;12.40;;;5.67;;
6723;SDS011;3399;52.530;13.304;2023-10-13T15:01:39;10.93;;;4.97;;
6723;SDS011;3399;52.530;13.304;2023-10-13T15:04:05;9.40;;;5.07;;
6723;SDS011;3399;52.530;13.304;2023-10-13T15:06:31;11.30;;;4.47;;
6723;SDS011;3399;52.530;13.304;2023-10-13T15:08:57;9.30;;;5.20;;
6723;SDS011;3399;52.530;13.304;2023-10-13T15:11:24;8.03;;;4.83;;
6723;SDS011;3399;52.530;13.304;2023-10-13T15:14:01;12.23;;;5.77;;
6723;SDS011;3399;52.530;13.304;2023-10-13T15:16:32;10.97;;;5.43;;
6723;SDS011;3399;52.530;13.304;2023-10-13T15:19:01;10.10;;;5.30;;
6723;SDS011;3399;52.530;13.304;2023-10-13T15:21:29;7.50;;;5.67;;
6723;SDS011;3399;52.530;13.304;2023-10-13T15:24:04;7.73;;;5.13;;
6723;SDS011;3399;52.530;13.304;2023-10-13T15:26:40;8.40;;;5.13;;
6723;SDS011;3399;52.530;13.304;2023-10-13T15:29:17;9.90;;;5.80;;
6723;SDS011;3399;52.530;13.304;2023-10-13T15:31:50;10.67;;;5.50;;
6723;SDS011;3399;52.530;13.304;2023-10-13T15:34:25;12.20;;;5.50;;
6723;SDS011;3399;52.530;13.304;2023-10-13T15:36:54;15.57;;;6.07;;
6723;SDS011;3399;52.530;13.304;2023-10-13T15:39:22;12.60;;;4.67;;
6723;SDS011;3399;52.530;13.304;2023-10-13T15:41:54;8.47;;;5.33;;
6723;SDS011;3399;52.530;13.304;2023-10-13T15:44:24;9.23;;;5.20;;
6723;SDS011;3399;52.530;13.304;2023-10-13T15:46:54;7.83;;;5.83;;
6723;SDS011;3399;52.530;13.304;2023-10-13T15:49:20;14.07;;;5.73;;
6723;SDS011;3399;52.530;13.304;2023-10-13T15:51:46;10.40;;;5.67;;
6723;SDS011;3399;52.530;13.304;2023-10-13T15:54:11;11.27;;;6.27;;